Time;durP1;ratioP1;P1;durP2;ratioP2;P2;SDS_P1;SDS_P2;PMS_P1;PMS_P2;Temp;Humidity;BMP_temperature;BMP_pressure;BME280_temperature;BME280_humidity;BME280_pressure;Samples;Min_cycle;Max_cycle;Signal;HPM_P1;HPM_P2
2022/04/04 00:00:03;;;;;;;;;;;18.80;55.80;;;;;;4983186;28;1955;-68
2022/04/04 00:02:29;;;;;;;;;;;18.80;55.80;;;;;;4999840;28;1321;-69
2022/04/04 00:04:54;;;;;;;;;;;18.80;55.80;;;;;;5000151;28;1220;-69
2022/04/04 00:07:20;;;;;;;;;;;18.80;55.80;;;;;;5001889;28;1280;-69
2022/04/04 00:09:46;;;;;;;;;;;18.80;55.80;;;;;;5002252;28;1306;-68
2022/04/04 00:12:12;;;;;;;;;;;18.80;55.80;;;;;;5001711;28;1153;-69
2022/04/04 00:14:37;;;;;;;;;;;18.80;55.80;;;;;;5000717;28;1185;-69
2022/04/04 00:17:03;;;;;;;;;;;18.80;55.80;;;;;;4991750;28;2286;-71
2022/04/04 00:19:28;;;;;;;;;;;18.80;55.80;;;;;;4993053;28;1316;-72
2022/04/04 00:21:54;;;;;;;;;;;18.80;55.80;;;;;;4993271;28;1903;-68
2022/04/04 00:24:19;;;;;;;;;;;18.80;55.80;;;;;;4992705;28;1097;-69
2022/04/04 00:26:45;;;;;;;;;;;18.80;55.90;;;;;;4992672;28;1282;-69
2022/04/04 00:29:10;;;;;;;;;;;18.80;55.80;;;;;;4998392;28;1253;-68
2022/04/04 00:31:35;;;;;;;;;;;18.80;55.80;;;;;;5003647;28;1174;-69
2022/04/04 00:34:01;;;;;;;;;;;18.80;55.90;;;;;;4983892;28;1477;-70
2022/04/04 00:36:26;;;;;;;;;;;18.80;55.80;;;;;;5000916;28;1216;-69
2022/04/04 00:38:52;;;;;;;;;;;18.80;55.80;;;;;;4999411;28;1439;-68
2022/04/04 00:41:17;;;;;;;;;;;18.80;55.90;;;;;;4999595;28;1956;-68
2022/04/04 00:43:43;;;;;;;;;;;18.80;55.90;;;;;;4999783;28;1215;-68
2022/04/04 00:46:08;;;;;;;;;;;18.70;55.80;;;;;;4981910;28;1201;-69
2022/04/04 00:48:34;;;;;;;;;;;18.70;55.80;;;;;;5000149;28;1285;-70
2022/04/04 00:51:00;;;;;;;;;;;18.80;55.90;;;;;;5003120;28;1153;-69
2022/04/04 00:53:26;;;;;;;;;;;18.80;55.90;;;;;;5001065;28;1279;-72
2022/04/04 00:55:51;;;;;;;;;;;18.80;55.90;;;;;;4999307;28;1149;-70
2022/04/04 00:58:17;;;;;;;;;;;18.70;55.90;;;;;;5003847;28;1328;-68
2022/04/04 01:00:43;;;;;;;;;;;18.70;55.90;;;;;;5002763;28;1898;-70
2022/04/04 01:03:09;;;;;;;;;;;18.70;55.90;;;;;;4986379;28;1276;-71
2022/04/04 01:05:34;;;;;;;;;;;18.70;55.90;;;;;;5003051;28;1263;-70
2022/04/04 01:08:00;;;;;;;;;;;18.70;55.90;;;;;;5002587;28;1257;-72
2022/04/04 01:10:25;;;;;;;;;;;18.80;56.00;;;;;;4998548;28;1273;-69
2022/04/04 01:12:51;;;;;;;;;;;18.70;55.90;;;;;;4996647;28;1096;-70
2022/04/04 01:15:17;;;;;;;;;;;18.70;55.90;;;;;;4996397;28;1494;-70
2022/04/04 01:17:42;;;;;;;;;;;18.70;55.90;;;;;;4995847;28;1394;-71
2022/04/04 01:20:08;;;;;;;;;;;18.70;56.00;;;;;;4996123;28;1950;-68
2022/04/04 01:22:33;;;;;;;;;;;18.70;56.00;;;;;;4996641;28;1266;-69
2022/04/04 01:24:59;;;;;;;;;;;18.70;55.90;;;;;;4996052;28;1451;-70
2022/04/04 01:27:24;;;;;;;;;;;18.70;55.90;;;;;;5000960;28;1314;-68
2022/04/04 01:29:50;;;;;;;;;;;18.70;55.90;;;;;;5004711;28;1293;-70
2022/04/04 01:32:15;;;;;;;;;;;18.70;55.90;;;;;;5005271;28;1211;-68
2022/04/04 01:34:41;;;;;;;;;;;18.70;55.90;;;;;;4985429;28;1252;-69
2022/04/04 01:37:06;;;;;;;;;;;18.70;55.90;;;;;;5003308;28;1328;-69
2022/04/04 01:39:32;;;;;;;;;;;18.70;55.90;;;;;;5003552;28;1432;-69
2022/04/04 01:41:57;;;;;;;;;;;18.70;55.90;;;;;;5000000;28;1969;-71
2022/04/04 01:44:23;;;;;;;;;;;18.70;55.90;;;;;;4995966;28;973;-71
2022/04/04 01:46:48;;;;;;;;;;;18.70;55.80;;;;;;4995455;28;1137;-70
2022/04/04 01:49:13;;;;;;;;;;;18.80;55.80;;;;;;4978044;28;1262;-71
2022/04/04 01:51:39;;;;;;;;;;;18.80;55.80;;;;;;4977908;28;1314;-72
2022/04/04 01:54:05;;;;;;;;;;;18.80;55.70;;;;;;4978239;28;1304;-71
2022/04/04 01:56:30;;;;;;;;;;;18.80;55.60;;;;;;4995353;28;1055;-71
2022/04/04 01:58:55;;;;;;;;;;;18.90;55.60;;;;;;4995429;28;1381;-71
2022/04/04 02:01:22;;;;;;;;;;;18.90;55.50;;;;;;4995571;28;1911;-69
2022/04/04 02:03:48;;;;;;;;;;;18.90;55.40;;;;;;4995332;28;1307;-71
2022/04/04 02:06:13;;;;;;;;;;;18.90;55.40;;;;;;4977546;28;1376;-70
2022/04/04 02:08:39;;;;;;;;;;;18.90;55.30;;;;;;4995244;28;1763;-68
2022/04/04 02:11:05;;;;;;;;;;;19.00;55.30;;;;;;4995566;28;1499;-71
2022/04/04 02:13:30;;;;;;;;;;;19.00;55.20;;;;;;4994327;28;1239;-71
2022/04/04 02:15:57;;;;;;;;;;;19.00;55.20;;;;;;4994457;28;1678;-72
2022/04/04 02:18:22;;;;;;;;;;;19.00;55.10;;;;;;4995166;28;1396;-70
2022/04/04 02:20:48;;;;;;;;;;;19.10;55.20;;;;;;4994975;28;1956;-70
2022/04/04 02:23:17;;;;;;;;;;;19.00;55.10;;;;;;4978010;28;1429;-68
2022/04/04 02:25:44;;;;;;;;;;;19.10;55.10;;;;;;4978288;28;1689;-70
2022/04/04 02:28:09;;;;;;;;;;;19.10;55.00;;;;;;4995570;28;1685;-71
2022/04/04 02:30:35;;;;;;;;;;;19.10;55.00;;;;;;4977938;28;1602;-71
2022/04/04 02:33:01;;;;;;;;;;;19.10;55.00;;;;;;5005975;28;1592;-67
2022/04/04 02:35:27;;;;;;;;;;;19.10;55.00;;;;;;4982137;28;1317;-68
2022/04/04 02:37:52;;;;;;;;;;;19.10;54.90;;;;;;5002495;28;1481;-67
2022/04/04 02:40:17;;;;;;;;;;;19.10;54.90;;;;;;4999988;28;1910;-70
2022/04/04 02:42:43;;;;;;;;;;;19.10;54.90;;;;;;5000635;28;1228;-71
2022/04/04 02:45:08;;;;;;;;;;;19.10;54.90;;;;;;5000173;28;1176;-70
2022/04/04 02:47:34;;;;;;;;;;;19.10;54.90;;;;;;4994462;28;1073;-72
2022/04/04 02:49:59;;;;;;;;;;;19.10;54.90;;;;;;4994586;28;1300;-70
2022/04/04 02:52:25;;;;;;;;;;;19.10;54.90;;;;;;4977336;28;1270;-70
2022/04/04 02:54:50;;;;;;;;;;;19.10;54.90;;;;;;4994585;28;1266;-70
2022/04/04 02:57:17;;;;;;;;;;;19.10;54.90;;;;;;4976625;28;1374;-70
2022/04/04 02:59:43;;;;;;;;;;;19.10;54.90;;;;;;4994300;28;1198;-70
2022/04/04 03:02:09;;;;;;;;;;;19.10;54.90;;;;;;4994130;28;1958;-70
2022/04/04 03:04:35;;;;;;;;;;;19.10;54.90;;;;;;4994391;28;1307;-71
2022/04/04 03:07:00;;;;;;;;;;;19.10;54.90;;;;;;4976232;28;1284;-70
2022/04/04 03:09:26;;;;;;;;;;;19.10;54.90;;;;;;4976486;28;1179;-70
2022/04/04 03:11:51;;;;;;;;;;;19.10;54.80;;;;;;4994021;28;1061;-70
2022/04/04 03:14:16;;;;;;;;;;;19.10;54.80;;;;;;4993071;28;1333;-70
2022/04/04 03:16:42;;;;;;;;;;;19.10;54.80;;;;;;4993655;28;1398;-70
2022/04/04 03:19:07;;;;;;;;;;;19.10;54.80;;;;;;4993825;28;1265;-70
2022/04/04 03:21:33;;;;;;;;;;;19.10;54.80;;;;;;4976414;28;1895;-70
2022/04/04 03:23:59;;;;;;;;;;;19.10;54.80;;;;;;4993916;28;1151;-70
2022/04/04 03:26:25;;;;;;;;;;;19.20;54.80;;;;;;4993200;28;1258;-70
2022/04/04 03:28:50;;;;;;;;;;;19.20;54.80;;;;;;4993718;28;1362;-70
2022/04/04 03:31:16;;;;;;;;;;;19.20;55.40;;;;;;4994065;28;1080;-70
2022/04/04 03:33:43;;;;;;;;;;;19.10;54.70;;;;;;5006760;28;1144;-70
2022/04/04 03:36:09;;;;;;;;;;;19.20;54.80;;;;;;4993338;28;1151;-70
2022/04/04 03:38:35;;;;;;;;;;;19.20;54.70;;;;;;4992953;28;1455;-69
2022/04/04 03:41:01;;;;;;;;;;;19.20;54.70;;;;;;4974262;28;1969;-70
2022/04/04 03:43:26;;;;;;;;;;;19.20;54.70;;;;;;4974106;28;1137;-70
2022/04/04 03:45:52;;;;;;;;;;;19.20;55.30;;;;;;4956564;28;1093;-70
2022/04/04 03:48:17;;;;;;;;;;;19.20;54.70;;;;;;4956444;28;1256;-70
2022/04/04 03:50:45;;;;;;;;;;;19.20;54.70;;;;;;4974364;28;1061;-70
2022/04/04 03:53:10;;;;;;;;;;;19.20;54.70;;;;;;4974244;28;1152;-70
2022/04/04 03:55:39;;;;;;;;;;;19.20;54.70;;;;;;4973692;28;1327;-70
2022/04/04 03:58:05;;;;;;;;;;;19.20;54.70;;;;;;4962959;28;1335;-71
2022/04/04 04:00:31;;;;;;;;;;;19.20;54.70;;;;;;4993835;28;1957;-70
2022/04/04 04:02:56;;;;;;;;;;;19.20;54.70;;;;;;4976066;28;1212;-70
2022/04/04 04:05:22;;;;;;;;;;;19.20;54.70;;;;;;4993327;28;1348;-69
2022/04/04 04:07:47;;;;;;;;;;;19.20;54.70;;;;;;4993237;28;1345;-69
2022/04/04 04:10:13;;;;;;;;;;;19.20;54.70;;;;;;4976000;28;1421;-69
2022/04/04 04:12:41;;;;;;;;;;;19.20;54.70;;;;;;4992760;28;1388;-70
2022/04/04 04:15:11;;;;;;;;;;;19.20;54.70;;;;;;4993115;28;1381;-69
2022/04/04 04:17:36;;;;;;;;;;;19.20;54.70;;;;;;4992499;28;1094;-70
2022/04/04 04:20:20;;;;;;;;;;;19.20;54.70;;;;;;4993177;28;1259;-69
2022/04/04 04:22:52;;;;;;;;;;;19.20;54.70;;;;;;4965538;28;1359;-69
2022/04/04 04:25:18;;;;;;;;;;;19.20;54.70;;;;;;4992475;28;1116;-69
2022/04/04 04:27:45;;;;;;;;;;;19.20;54.70;;;;;;4992728;28;1354;-69
2022/04/04 04:30:11;;;;;;;;;;;19.20;54.70;;;;;;4975603;28;1099;-69
2022/04/04 04:32:36;;;;;;;;;;;19.20;54.70;;;;;;5005644;28;1145;-69
2022/04/04 04:35:02;;;;;;;;;;;19.20;54.60;;;;;;4982583;28;1445;-69
2022/04/04 04:37:27;;;;;;;;;;;19.20;54.60;;;;;;4999956;28;1467;-69
2022/04/04 04:39:52;;;;;;;;;;;19.20;54.60;;;;;;4996001;28;1228;-69
2022/04/04 04:42:18;;;;;;;;;;;19.20;54.70;;;;;;4987917;28;1898;-69
2022/04/04 04:44:44;;;;;;;;;;;19.20;54.60;;;;;;4983927;28;1089;-70
2022/04/04 04:47:09;;;;;;;;;;;19.20;54.60;;;;;;4978929;28;1513;-70
2022/04/04 04:49:35;;;;;;;;;;;19.20;54.60;;;;;;4996743;28;1322;-69
2022/04/04 04:52:00;;;;;;;;;;;19.20;54.70;;;;;;4996632;28;1344;-69
2022/04/04 04:54:26;;;;;;;;;;;19.20;54.60;;;;;;4996951;28;1274;-69
2022/04/04 04:56:51;;;;;;;;;;;19.20;54.60;;;;;;4996944;28;1112;-70
2022/04/04 04:59:17;;;;;;;;;;;19.20;54.60;;;;;;4996666;28;1484;-70
2022/04/04 05:01:42;;;;;;;;;;;19.20;54.60;;;;;;4996592;28;1890;-70
2022/04/04 05:04:08;;;;;;;;;;;19.20;55.20;;;;;;4996735;28;1192;-69
2022/04/04 05:06:33;;;;;;;;;;;19.20;54.60;;;;;;4996039;28;1057;-69
2022/04/04 05:09:00;;;;;;;;;;;19.20;54.60;;;;;;4996850;28;1389;-70
2022/04/04 05:11:26;;;;;;;;;;;19.20;54.60;;;;;;4996580;28;1468;-69
2022/04/04 05:13:51;;;;;;;;;;;19.20;54.60;;;;;;4996368;28;1512;-69
2022/04/04 05:16:17;;;;;;;;;;;19.20;54.60;;;;;;4996440;28;1238;-70
2022/04/04 05:18:43;;;;;;;;;;;19.20;54.60;;;;;;4979154;28;1293;-70
2022/04/04 05:21:09;;;;;;;;;;;19.20;54.60;;;;;;4978522;28;1894;-70
2022/04/04 05:23:35;;;;;;;;;;;19.20;54.60;;;;;;4996042;28;1092;-71
2022/04/04 05:26:00;;;;;;;;;;;19.20;54.60;;;;;;4978464;28;1196;-71
2022/04/04 05:28:26;;;;;;;;;;;19.20;54.60;;;;;;4978590;28;1272;-69
2022/04/04 05:30:51;;;;;;;;;;;19.20;54.60;;;;;;4996140;28;1363;-69
2022/04/04 05:33:17;;;;;;;;;;;19.20;54.60;;;;;;4991859;28;1117;-70
2022/04/04 05:35:43;;;;;;;;;;;19.20;54.60;;;;;;4995735;28;1120;-69
2022/04/04 05:38:08;;;;;;;;;;;19.20;54.60;;;;;;5002481;28;1494;-70
2022/04/04 05:40:34;;;;;;;;;;;19.20;54.60;;;;;;4996448;28;1971;-70
2022/04/04 05:43:00;;;;;;;;;;;19.20;54.60;;;;;;4994904;28;1042;-70
2022/04/04 05:45:26;;;;;;;;;;;19.20;54.60;;;;;;4952926;28;1882;-71
2022/04/04 05:47:52;;;;;;;;;;;19.20;54.60;;;;;;4989262;28;1956;-68
2022/04/04 05:50:18;;;;;;;;;;;19.20;54.60;;;;;;4994730;28;1190;-68
2022/04/04 05:52:44;;;;;;;;;;;19.20;54.60;;;;;;4995005;28;1329;-70
2022/04/04 05:55:09;;;;;;;;;;;19.20;54.60;;;;;;4977577;28;1296;-68
2022/04/04 05:57:36;;;;;;;;;;;19.20;54.60;;;;;;4994199;28;1312;-70
2022/04/04 06:00:03;;;;;;;;;;;19.20;54.60;;;;;;4978193;28;1327;-69
2022/04/04 06:02:28;;;;;;;;;;;19.20;54.70;;;;;;4978181;28;1899;-70
2022/04/04 06:04:54;;;;;;;;;;;19.20;54.60;;;;;;4995613;28;1282;-69
2022/04/04 06:07:19;;;;;;;;;;;19.20;54.60;;;;;;4961904;28;1297;-70
2022/04/04 06:09:45;;;;;;;;;;;19.20;54.60;;;;;;4976531;28;2054;-70
2022/04/04 06:12:10;;;;;;;;;;;19.20;54.60;;;;;;4994292;28;1387;-71
2022/04/04 06:14:36;;;;;;;;;;;19.20;54.60;;;;;;4986261;28;1672;-69
2022/04/04 06:17:03;;;;;;;;;;;19.20;54.60;;;;;;4995006;28;1469;-70
2022/04/04 06:19:29;;;;;;;;;;;19.20;54.60;;;;;;4995217;28;1278;-69
2022/04/04 06:21:54;;;;;;;;;;;19.20;54.60;;;;;;4994974;28;1906;-70
2022/04/04 06:24:20;;;;;;;;;;;19.20;54.60;;;;;;4991371;28;1142;-70
2022/04/04 06:26:46;;;;;;;;;;;19.20;54.60;;;;;;4994273;28;1108;-71
2022/04/04 06:29:12;;;;;;;;;;;19.20;54.60;;;;;;4995691;28;1240;-71
2022/04/04 06:31:37;;;;;;;;;;;19.20;54.60;;;;;;4984314;28;1210;-71
2022/04/04 06:34:04;;;;;;;;;;;19.20;54.60;;;;;;5005943;28;1076;-69
2022/04/04 06:36:30;;;;;;;;;;;19.20;54.60;;;;;;4994390;28;1050;-71
2022/04/04 06:38:56;;;;;;;;;;;19.20;54.60;;;;;;5001549;28;1662;-71
2022/04/04 06:41:21;;;;;;;;;;;19.20;54.60;;;;;;4981545;28;1914;-68
2022/04/04 06:43:47;;;;;;;;;;;19.20;54.60;;;;;;4986235;28;1057;-69
2022/04/04 06:46:13;;;;;;;;;;;19.20;54.60;;;;;;4989264;28;1252;-69
2022/04/04 06:48:39;;;;;;;;;;;19.20;54.60;;;;;;4977509;28;1571;-70
2022/04/04 06:51:05;;;;;;;;;;;19.20;54.60;;;;;;4977418;28;1173;-69
2022/04/04 06:53:30;;;;;;;;;;;19.20;54.60;;;;;;4977439;28;1168;-69
2022/04/04 06:55:56;;;;;;;;;;;19.20;54.60;;;;;;4992550;28;1089;-69
2022/04/04 06:58:21;;;;;;;;;;;19.20;54.60;;;;;;4994075;28;1318;-69
2022/04/04 07:00:47;;;;;;;;;;;19.20;54.60;;;;;;4976665;28;1899;-70
2022/04/04 07:03:12;;;;;;;;;;;19.20;54.60;;;;;;4994550;28;1139;-69
2022/04/04 07:05:38;;;;;;;;;;;19.20;54.60;;;;;;4976143;28;1280;-70
2022/04/04 07:08:03;;;;;;;;;;;19.20;54.60;;;;;;4994142;28;1349;-69
2022/04/04 07:10:28;;;;;;;;;;;19.20;54.60;;;;;;4976715;28;1274;-71
2022/04/04 07:12:54;;;;;;;;;;;19.20;54.60;;;;;;4960687;28;1149;-69
2022/04/04 07:15:19;;;;;;;;;;;19.20;54.60;;;;;;4994122;28;1347;-69
2022/04/04 07:17:45;;;;;;;;;;;19.20;54.60;;;;;;4993149;28;1273;-71
2022/04/04 07:20:10;;;;;;;;;;;19.20;54.50;;;;;;4976591;28;1951;-69
2022/04/04 07:22:36;;;;;;;;;;;19.30;54.50;;;;;;4976942;28;1353;-69
2022/04/04 07:25:03;;;;;;;;;;;19.40;54.40;;;;;;4975987;28;1133;-69
2022/04/04 07:27:28;;;;;;;;;;;19.40;54.30;;;;;;4993650;28;1265;-69
2022/04/04 07:29:53;;;;;;;;;;;19.60;54.20;;;;;;4993819;28;1304;-71
2022/04/04 07:32:19;;;;;;;;;;;19.70;54.10;;;;;;5001722;28;1124;-69
2022/04/04 07:34:44;;;;;;;;;;;19.80;53.80;;;;;;4998924;28;1131;-69
2022/04/04 07:37:10;;;;;;;;;;;19.90;53.60;;;;;;4977271;28;1420;-71
2022/04/04 07:39:35;;;;;;;;;;;20.00;53.40;;;;;;4998725;28;1358;-68
2022/04/04 07:42:00;;;;;;;;;;;20.10;53.20;;;;;;4993621;28;1969;-69
2022/04/04 07:44:26;;;;;;;;;;;20.20;53.00;;;;;;4993529;28;1274;-69
2022/04/04 07:46:52;;;;;;;;;;;20.30;52.80;;;;;;4975730;28;1357;-69
2022/04/04 07:49:19;;;;;;;;;;;20.40;52.60;;;;;;4993466;28;1343;-69
2022/04/04 07:51:44;;;;;;;;;;;20.40;52.50;;;;;;4976290;28;1058;-71
2022/04/04 07:54:10;;;;;;;;;;;20.50;52.30;;;;;;4975957;28;1351;-70
2022/04/04 07:56:36;;;;;;;;;;;20.60;52.20;;;;;;4993354;28;1166;-69
2022/04/04 07:59:01;;;;;;;;;;;20.60;52.00;;;;;;4993525;28;1342;-69
2022/04/04 08:01:27;;;;;;;;;;;20.70;51.90;;;;;;4993181;28;1910;-70
2022/04/04 08:03:52;;;;;;;;;;;20.70;51.70;;;;;;4992988;28;1301;-69
2022/04/04 08:06:18;;;;;;;;;;;20.80;51.60;;;;;;4993099;28;1271;-69
2022/04/04 08:08:43;;;;;;;;;;;20.90;51.60;;;;;;4993293;28;1350;-69
2022/04/04 08:11:11;;;;;;;;;;;20.80;51.50;;;;;;4993060;28;1371;-70
2022/04/04 08:13:42;;;;;;;;;;;20.90;51.50;;;;;;4975706;28;1324;-69
2022/04/04 08:16:08;;;;;;;;;;;20.90;51.40;;;;;;4976723;28;1089;-70
2022/04/04 08:18:34;;;;;;;;;;;20.90;51.40;;;;;;4962356;28;1341;-69
2022/04/04 08:20:59;;;;;;;;;;;20.90;51.40;;;;;;4975648;28;1911;-70
2022/04/04 08:23:29;;;;;;;;;;;20.90;51.40;;;;;;4992758;28;1269;-69
2022/04/04 08:25:58;;;;;;;;;;;20.90;51.40;;;;;;4975335;28;1273;-68
2022/04/04 08:28:24;;;;;;;;;;;21.00;51.50;;;;;;4993026;28;1344;-70
2022/04/04 08:30:52;;;;;;;;;;;20.90;51.40;;;;;;4975578;28;1265;-69
2022/04/04 08:33:18;;;;;;;;;;;20.90;51.40;;;;;;5006200;28;1164;-71
2022/04/04 08:35:45;;;;;;;;;;;20.90;51.40;;;;;;4975180;28;1121;-69
2022/04/04 08:38:10;;;;;;;;;;;20.90;51.40;;;;;;4975432;28;1478;-70
2022/04/04 08:40:36;;;;;;;;;;;20.90;51.40;;;;;;4973145;28;1906;-71
2022/04/04 08:43:01;;;;;;;;;;;20.90;51.40;;;;;;4969587;28;1335;-68
2022/04/04 08:45:27;;;;;;;;;;;20.90;51.50;;;;;;4974874;28;1097;-70
2022/04/04 08:47:52;;;;;;;;;;;20.90;51.50;;;;;;4974790;28;1380;-69
2022/04/04 08:50:18;;;;;;;;;;;20.80;51.60;;;;;;4974305;28;1254;-69
2022/04/04 08:52:44;;;;;;;;;;;20.90;51.60;;;;;;4992592;28;1056;-68
2022/04/04 08:55:10;;;;;;;;;;;20.80;51.70;;;;;;4992675;28;1140;-69
2022/04/04 08:57:35;;;;;;;;;;;20.80;51.70;;;;;;4978656;28;1139;-70
2022/04/04 09:00:00;;;;;;;;;;;20.80;51.80;;;;;;4974957;28;1391;-70
2022/04/04 09:02:26;;;;;;;;;;;20.70;51.80;;;;;;4992914;28;1954;-70
2022/04/04 09:04:51;;;;;;;;;;;20.70;51.90;;;;;;4993131;28;1341;-70
2022/04/04 09:07:18;;;;;;;;;;;20.70;52.00;;;;;;4992118;28;1276;-69
2022/04/04 09:09:53;;;;;;;;;;;20.70;52.00;;;;;;4975733;28;1204;-70
2022/04/04 09:12:22;;;;;;;;;;;20.70;52.10;;;;;;4992937;28;1272;-69
2022/04/04 09:14:51;;;;;;;;;;;20.70;52.10;;;;;;4993169;28;1360;-70
2022/04/04 09:17:17;;;;;;;;;;;20.60;52.10;;;;;;4981710;28;1296;-70
2022/04/04 09:19:43;;;;;;;;;;;20.60;52.20;;;;;;4988959;28;1418;-69
2022/04/04 09:22:15;;;;;;;;;;;20.60;52.20;;;;;;5004247;28;1914;-70
2022/04/04 09:24:51;;;;;;;;;;;20.60;52.30;;;;;;4989956;28;1336;-70
2022/04/04 09:27:25;;;;;;;;;;;20.60;52.30;;;;;;4987944;28;1175;-69
2022/04/04 09:29:52;;;;;;;;;;;20.50;52.30;;;;;;4999667;28;1268;-70
2022/04/04 09:32:18;;;;;;;;;;;20.50;52.40;;;;;;4980975;28;1466;-70
2022/04/04 09:35:08;;;;;;;;;;;20.50;52.40;;;;;;4997788;28;1021;-70
2022/04/04 09:37:34;;;;;;;;;;;20.50;52.50;;;;;;5003825;28;1353;-70
2022/04/04 09:40:03;;;;;;;;;;;20.50;52.50;;;;;;4982913;28;1234;-70
2022/04/04 09:42:28;;;;;;;;;;;20.50;52.60;;;;;;5001976;28;1918;-70
2022/04/04 09:45:01;;;;;;;;;;;20.50;52.50;;;;;;5005344;28;1213;-70
2022/04/04 09:47:45;;;;;;;;;;;20.40;52.50;;;;;;5004091;28;1181;-70
2022/04/04 09:50:26;;;;;;;;;;;20.40;52.60;;;;;;4976527;28;1355;-68
2022/04/04 09:52:52;;;;;;;;;;;20.40;52.60;;;;;;4959206;28;1389;-69
2022/04/04 09:55:28;;;;;;;;;;;20.40;52.60;;;;;;4958963;28;1002;-69
2022/04/04 09:57:54;;;;;;;;;;;20.40;52.70;;;;;;4976125;28;1930;-69
2022/04/04 10:00:20;;;;;;;;;;;20.40;52.80;;;;;;4942522;28;1895;-68
2022/04/04 10:02:45;;;;;;;;;;;20.30;52.70;;;;;;4943394;28;1420;-69
2022/04/04 10:05:11;;;;;;;;;;;20.40;52.80;;;;;;4958993;28;1394;-70
2022/04/04 10:07:36;;;;;;;;;;;20.30;52.80;;;;;;4958413;28;1312;-69
2022/04/04 10:10:02;;;;;;;;;;;20.30;52.90;;;;;;4958409;28;1346;-70
2022/04/04 10:12:27;;;;;;;;;;;20.30;52.90;;;;;;4997488;28;1353;-69
2022/04/04 10:14:52;;;;;;;;;;;20.20;52.90;;;;;;4997773;28;1283;-69
2022/04/04 10:17:18;;;;;;;;;;;20.30;53.00;;;;;;4977075;28;1317;-69
2022/04/04 10:19:43;;;;;;;;;;;20.20;53.10;;;;;;4985261;28;1291;-68
2022/04/04 10:22:09;;;;;;;;;;;20.20;53.10;;;;;;4981724;28;1906;-68
2022/04/04 10:24:35;;;;;;;;;;;20.20;53.20;;;;;;4977945;28;1519;-68
2022/04/04 10:27:00;;;;;;;;;;;20.20;53.20;;;;;;4977708;28;1316;-68
2022/04/04 10:29:26;;;;;;;;;;;20.10;53.30;;;;;;4993705;28;1195;-69
2022/04/04 10:31:52;;;;;;;;;;;20.10;53.30;;;;;;4981116;28;1456;-69
2022/04/04 10:34:18;;;;;;;;;;;20.10;53.40;;;;;;5003985;28;1072;-70
2022/04/04 10:36:54;;;;;;;;;;;20.10;53.40;;;;;;4993805;28;1240;-68
2022/04/04 10:39:32;;;;;;;;;;;20.10;53.50;;;;;;5001516;28;1756;-69
2022/04/04 10:41:57;;;;;;;;;;;20.00;53.50;;;;;;4993682;28;2122;-69
2022/04/04 10:44:42;;;;;;;;;;;20.00;53.60;;;;;;4994063;28;1154;-69
2022/04/04 10:47:18;;;;;;;;;;;20.00;53.60;;;;;;4994021;28;1321;-68
2022/04/04 10:49:43;;;;;;;;;;;20.00;53.70;;;;;;4991102;28;1299;-69
2022/04/04 10:52:09;;;;;;;;;;;19.90;53.70;;;;;;4976958;28;1676;-69
2022/04/04 10:54:34;;;;;;;;;;;19.90;53.80;;;;;;4994547;28;837;-68
2022/04/04 10:57:00;;;;;;;;;;;19.90;53.80;;;;;;4992886;28;1349;-68
2022/04/04 10:59:25;;;;;;;;;;;19.90;53.90;;;;;;4994537;28;1212;-68
2022/04/04 11:01:55;;;;;;;;;;;19.80;53.90;;;;;;4976993;28;1915;-68
2022/04/04 11:04:23;;;;;;;;;;;19.80;54.00;;;;;;4993558;28;825;-69
2022/04/04 11:09:51;;;;;;;;;;;19.80;54.10;;;;;;4994492;28;1346;-68
2022/04/04 11:12:18;;;;;;;;;;;19.80;54.10;;;;;;4983714;28;1108;-69
2022/04/04 11:14:46;;;;;;;;;;;19.70;54.10;;;;;;4993153;28;1122;-67
2022/04/04 11:17:13;;;;;;;;;;;19.80;54.20;;;;;;4993669;28;914;-68
2022/04/04 11:19:49;;;;;;;;;;;19.70;54.20;;;;;;4994243;28;1208;-69
2022/04/04 11:22:24;;;;;;;;;;;19.70;54.30;;;;;;4994326;28;1932;-68
2022/04/04 11:24:53;;;;;;;;;;;19.70;54.40;;;;;;4992896;28;800;-68
2022/04/04 11:27:19;;;;;;;;;;;19.70;54.40;;;;;;4992723;28;914;-69
2022/04/04 11:29:45;;;;;;;;;;;19.70;54.40;;;;;;4992820;28;1232;-68
2022/04/04 11:32:15;;;;;;;;;;;19.60;54.40;;;;;;4993779;28;1133;-68
2022/04/04 11:34:42;;;;;;;;;;;19.60;54.50;;;;;;4994698;28;847;-67
2022/04/04 11:37:17;;;;;;;;;;;19.60;54.60;;;;;;4993371;28;1109;-69
2022/04/04 11:39:43;;;;;;;;;;;19.60;54.60;;;;;;4992797;28;1361;-68
2022/04/04 11:42:08;;;;;;;;;;;19.60;54.60;;;;;;4993118;28;1969;-68
2022/04/04 11:44:37;;;;;;;;;;;19.50;54.60;;;;;;4993800;28;868;-67
2022/04/04 11:47:02;;;;;;;;;;;19.50;54.70;;;;;;4993238;28;887;-68
2022/04/04 11:49:32;;;;;;;;;;;19.50;54.70;;;;;;4993845;28;1214;-68
2022/04/04 11:52:02;;;;;;;;;;;19.50;54.80;;;;;;4993567;28;1070;-68
2022/04/04 11:54:29;;;;;;;;;;;19.50;54.80;;;;;;4993457;28;927;-67
2022/04/04 11:56:57;;;;;;;;;;;19.50;54.90;;;;;;4992021;28;1084;-68
2022/04/04 11:59:23;;;;;;;;;;;19.50;54.90;;;;;;4993711;28;1186;-68
2022/04/04 12:01:48;;;;;;;;;;;19.40;54.90;;;;;;4991856;28;1902;-68
2022/04/04 12:04:15;;;;;;;;;;;19.40;54.90;;;;;;4993439;28;705;-68
2022/04/04 12:06:41;;;;;;;;;;;19.40;55.00;;;;;;4992922;28;966;-68
2022/04/04 12:09:10;;;;;;;;;;;19.40;55.00;;;;;;4992361;28;1211;-67
2022/04/04 12:11:36;;;;;;;;;;;19.40;55.10;;;;;;4993422;28;1120;-67
2022/04/04 12:14:01;;;;;;;;;;;19.40;55.10;;;;;;4993205;28;800;-67
2022/04/04 12:16:26;;;;;;;;;;;19.40;55.10;;;;;;4993326;28;871;-67
2022/04/04 12:18:53;;;;;;;;;;;19.30;55.10;;;;;;4993236;28;1194;-68
2022/04/04 12:21:20;;;;;;;;;;;19.30;55.20;;;;;;4988805;28;1993;-67
2022/04/04 12:26:30;;;;;;;;;;;19.30;55.20;;;;;;4991490;28;1253;-67
2022/04/04 12:28:56;;;;;;;;;;;19.30;55.30;;;;;;4993038;28;1380;-68
2022/04/04 12:31:25;;;;;;;;;;;19.30;55.30;;;;;;4991164;28;2171;-69
2022/04/04 12:33:53;;;;;;;;;;;19.30;55.30;;;;;;4993562;28;1076;-71
2022/04/04 12:36:32;;;;;;;;;;;19.30;55.40;;;;;;4992983;28;1135;-71
2022/04/04 12:38:58;;;;;;;;;;;19.20;55.40;;;;;;4992131;28;1299;-71
2022/04/04 12:41:23;;;;;;;;;;;19.20;55.40;;;;;;4976024;28;2007;-71
2022/04/04 12:43:59;;;;;;;;;;;19.20;55.50;;;;;;4993017;28;888;-70
2022/04/04 12:46:31;;;;;;;;;;;19.20;55.50;;;;;;4975152;28;1264;-70
2022/04/04 12:49:09;;;;;;;;;;;19.20;56.10;;;;;;4992462;28;1228;-70
2022/04/04 12:51:34;;;;;;;;;;;19.20;55.50;;;;;;4991135;28;2330;-71
2022/04/04 12:54:00;;;;;;;;;;;19.20;55.60;;;;;;4995721;28;946;-71
2022/04/04 12:56:30;;;;;;;;;;;19.20;55.60;;;;;;4996428;28;1131;-70
2022/04/04 12:59:08;;;;;;;;;;;19.10;55.60;;;;;;4997783;28;1298;-70
2022/04/04 13:01:34;;;;;;;;;;;19.10;55.40;;;;;;4999043;28;1910;-71
2022/04/04 13:04:00;;;;;;;;;;;19.10;55.50;;;;;;4998488;28;1057;-69
2022/04/04 13:06:28;;;;;;;;;;;19.10;55.50;;;;;;4995720;28;1136;-69
2022/04/04 13:08:57;;;;;;;;;;;19.10;55.50;;;;;;4995462;28;1248;-69
2022/04/04 13:11:24;;;;;;;;;;;19.10;55.50;;;;;;4981960;28;1113;-69
2022/04/04 13:14:05;;;;;;;;;;;19.10;55.40;;;;;;4996510;28;875;-69
2022/04/04 13:16:37;;;;;;;;;;;19.10;55.40;;;;;;4996342;28;819;-69
2022/04/04 13:19:03;;;;;;;;;;;19.20;55.40;;;;;;4996733;28;1133;-69
2022/04/04 13:21:29;;;;;;;;;;;19.20;55.40;;;;;;4995285;28;1910;-69
2022/04/04 13:23:54;;;;;;;;;;;19.20;55.30;;;;;;4995147;28;894;-69
2022/04/04 13:26:20;;;;;;;;;;;19.30;55.30;;;;;;4995947;28;860;-69
2022/04/04 13:28:45;;;;;;;;;;;19.30;55.30;;;;;;4996362;28;1215;-70
2022/04/04 13:31:10;;;;;;;;;;;19.30;55.20;;;;;;4996369;28;687;-70
2022/04/04 13:33:36;;;;;;;;;;;19.30;55.10;;;;;;4996860;28;1223;-68
2022/04/04 13:36:03;;;;;;;;;;;19.30;55.10;;;;;;4995581;28;1085;-69
2022/04/04 13:38:28;;;;;;;;;;;19.30;55.10;;;;;;4995250;28;1223;-69
2022/04/04 13:40:54;;;;;;;;;;;19.30;55.00;;;;;;4996092;28;1898;-69
2022/04/04 13:43:19;;;;;;;;;;;19.30;55.00;;;;;;4995678;28;919;-70
2022/04/04 13:45:44;;;;;;;;;;;19.30;55.00;;;;;;4995761;28;875;-69
2022/04/04 13:48:10;;;;;;;;;;;19.30;55.00;;;;;;4990324;28;1308;-70
2022/04/04 13:50:35;;;;;;;;;;;19.30;54.90;;;;;;4975070;28;897;-70
2022/04/04 13:53:01;;;;;;;;;;;19.30;54.90;;;;;;4978362;28;754;-70
2022/04/04 13:55:26;;;;;;;;;;;19.30;54.90;;;;;;4977509;28;871;-68
2022/04/04 13:57:52;;;;;;;;;;;19.30;54.90;;;;;;4995761;28;1281;-70
2022/04/04 14:00:17;;;;;;;;;;;19.30;54.90;;;;;;4995499;28;1046;-70
2022/04/04 14:02:43;;;;;;;;;;;19.30;54.90;;;;;;4994919;28;1898;-68
2022/04/04 14:05:09;;;;;;;;;;;19.30;54.90;;;;;;4977630;28;867;-70
2022/04/04 14:07:34;;;;;;;;;;;19.30;54.90;;;;;;4994163;28;1092;-69
2022/04/04 14:10:00;;;;;;;;;;;19.30;54.90;;;;;;4994946;28;1287;-69
2022/04/04 14:12:25;;;;;;;;;;;19.40;54.90;;;;;;4994626;28;1175;-70
2022/04/04 14:14:51;;;;;;;;;;;19.30;54.80;;;;;;4996836;28;868;-70
2022/04/04 14:17:17;;;;;;;;;;;19.40;54.90;;;;;;4994163;28;955;-70
2022/04/04 14:19:43;;;;;;;;;;;19.30;54.80;;;;;;4994391;28;1244;-69
2022/04/04 14:22:09;;;;;;;;;;;19.40;54.80;;;;;;4994425;28;1915;-69
2022/04/04 14:24:35;;;;;;;;;;;19.40;54.80;;;;;;4995471;28;927;-70
2022/04/04 14:27:00;;;;;;;;;;;19.40;54.80;;;;;;4977061;28;1547;-69
2022/04/04 14:29:26;;;;;;;;;;;19.40;54.80;;;;;;4995184;28;1210;-69
2022/04/04 14:31:52;;;;;;;;;;;19.40;54.80;;;;;;4995371;28;1141;-70